Time;durP1;ratioP1;P1;durP2;ratioP2;P2;SDS_P1;SDS_P2;PMS_P1;PMS_P2;Temp;Humidity;BMP_temperature;BMP_pressure;BME280_temperature;BME280_humidity;BME280_pressure;Samples;Min_cycle;Max_cycle;Signal;HPM_P1;HPM_P2
2022/12/16 00:00:26;;;;;;;56.85;32.20;;;-0.10;99.90;;;;;;4992480;28;20375;-66
2022/12/16 00:02:52;;;;;;;60.28;35.03;;;-0.10;99.90;;;;;;4993422;28;20096;-66
2022/12/16 00:05:21;;;;;;;48.33;28.55;;;0.00;99.90;;;;;;4993172;28;20046;-66
2022/12/16 00:07:47;;;;;;;49.92;28.30;;;0.00;99.90;;;;;;4993452;28;20122;-66
2022/12/16 00:10:13;;;;;;;46.38;26.58;;;0.10;99.90;;;;;;4993088;28;20486;-66
2022/12/16 00:12:39;;;;;;;48.85;26.55;;;0.20;99.90;;;;;;4992728;28;20582;-66
2022/12/16 00:15:05;;;;;;;41.60;24.42;;;0.20;99.90;;;;;;4993355;28;20209;-66
2022/12/16 00:17:31;;;;;;;40.75;24.90;;;0.20;99.90;;;;;;4984106;28;20053;-66
2022/12/16 00:19:57;;;;;;;41.20;24.23;;;0.20;99.90;;;;;;4991804;28;20473;-66
2022/12/16 00:22:23;;;;;;;46.40;25.13;;;0.20;99.90;;;;;;4993104;28;20037;-66
2022/12/16 00:24:49;;;;;;;37.78;22.95;;;0.10;99.90;;;;;;4993103;28;20038;-66
2022/12/16 00:27:15;;;;;;;42.60;23.75;;;0.00;99.90;;;;;;4991250;28;20035;-66
2022/12/16 00:29:41;;;;;;;38.55;23.48;;;0.00;99.90;;;;;;4991595;28;20047;-66
2022/12/16 00:32:07;;;;;;;38.33;21.75;;;-0.10;99.90;;;;;;4991633;28;20050;-66
2022/12/16 00:34:32;;;;;;;31.88;20.70;;;-0.20;99.90;;;;;;4992679;28;20053;-66
2022/12/16 00:36:58;;;;;;;36.15;22.60;;;-0.10;99.90;;;;;;4991285;28;20065;-66
2022/12/16 00:39:24;;;;;;;33.10;21.02;;;-0.20;99.90;;;;;;5024117;28;20074;-66
2022/12/16 00:41:50;;;;;;;30.08;19.77;;;-0.20;99.90;;;;;;4991225;28;20046;-66
2022/12/16 00:44:16;;;;;;;36.22;21.55;;;-0.20;99.90;;;;;;4991269;28;20497;-66
2022/12/16 00:46:42;;;;;;;41.47;24.27;;;-0.30;99.90;;;;;;4992668;28;20046;-66
2022/12/16 00:49:08;;;;;;;34.47;22.80;;;-0.30;99.90;;;;;;4992628;28;20046;-66
2022/12/16 00:51:34;;;;;;;41.05;23.88;;;-0.30;99.90;;;;;;4991498;28;20047;-66
2022/12/16 00:54:00;;;;;;;37.45;22.80;;;-0.30;99.90;;;;;;4991491;28;20104;-66
2022/12/16 00:56:26;;;;;;;38.60;25.00;;;-0.30;99.90;;;;;;5007076;28;20414;-66
2022/12/16 00:58:51;;;;;;;34.78;21.55;;;-0.30;99.90;;;;;;4992538;28;20038;-66
2022/12/16 01:01:17;;;;;;;45.53;23.90;;;-0.20;99.90;;;;;;4991082;28;20042;-66
2022/12/16 01:03:43;;;;;;;37.75;23.42;;;-0.30;99.90;;;;;;4991202;28;20042;-66
2022/12/16 01:06:17;;;;;;;32.75;22.02;;;-0.20;99.90;;;;;;4991094;28;20039;-66
2022/12/16 01:08:47;;;;;;;36.72;22.65;;;-0.30;99.90;;;;;;4990882;28;20042;-66
2022/12/16 01:11:15;;;;;;;33.85;20.40;;;-0.30;99.90;;;;;;4990297;28;20096;-66
2022/12/16 01:13:41;;;;;;;34.42;20.98;;;-0.40;99.90;;;;;;5024197;28;20050;-67
2022/12/16 01:16:07;;;;;;;31.45;20.40;;;-0.40;99.90;;;;;;5024213;28;20384;-66
2022/12/16 01:18:33;;;;;;;37.30;21.50;;;-0.50;99.90;;;;;;4992041;28;20637;-66
2022/12/16 01:21:05;;;;;;;30.52;19.75;;;-0.60;99.90;;;;;;4990838;28;20047;-66
2022/12/16 01:23:31;;;;;;;37.63;20.95;;;-0.70;99.90;;;;;;4992557;28;20105;-66
2022/12/16 01:25:58;;;;;;;31.95;19.52;;;-0.70;99.90;;;;;;4991850;28;20038;-66
2022/12/16 01:28:25;;;;;;;27.52;18.63;;;-0.80;99.90;;;;;;4992224;28;20136;-66
2022/12/16 01:31:00;;;;;;;29.70;18.75;;;-0.90;99.90;;;;;;4992003;28;20050;-66
2022/12/16 01:33:31;;;;;;;29.10;18.88;;;-1.00;99.90;;;;;;4992246;28;20414;-66
2022/12/16 01:36:03;;;;;;;31.15;17.92;;;-1.00;99.90;;;;;;5023447;28;20141;-67
2022/12/16 01:38:29;;;;;;;26.83;17.08;;;-1.10;99.90;;;;;;4991584;28;20050;-66
2022/12/16 01:40:55;;;;;;;28.55;17.75;;;-1.10;99.90;;;;;;4991335;28;20049;-66
2022/12/16 01:43:27;;;;;;;28.00;18.52;;;-1.20;99.90;;;;;;4990702;28;20038;-66
2022/12/16 01:46:08;;;;;;;40.80;20.58;;;-1.20;99.90;;;;;;4991996;28;20117;-67
2022/12/16 01:48:36;;;;;;;33.90;19.83;;;-1.20;99.90;;;;;;4992064;28;20042;-66
2022/12/16 01:51:27;;;;;;;32.80;18.85;;;-1.30;99.90;;;;;;4992062;28;20048;-67
2022/12/16 01:53:59;;;;;;;35.83;20.85;;;-1.30;99.90;;;;;;4991386;28;20038;-66
2022/12/16 01:56:27;;;;;;;31.48;19.73;;;-1.30;99.90;;;;;;4991483;28;20048;-66
2022/12/16 01:58:54;;;;;;;27.90;20.00;;;-1.30;99.90;;;;;;4990059;28;20104;-66
2022/12/16 02:01:20;;;;;;;29.85;19.50;;;-1.40;99.90;;;;;;4991553;28;20034;-66
2022/12/16 02:03:47;;;;;;;33.47;18.65;;;-1.40;99.90;;;;;;4991523;28;20042;-67
2022/12/16 02:06:13;;;;;;;29.42;19.40;;;-1.40;99.90;;;;;;4991398;28;20034;-67
2022/12/16 02:08:39;;;;;;;31.58;19.30;;;-1.40;99.90;;;;;;4991232;28;20125;-67
2022/12/16 02:11:56;;;;;;;30.27;17.55;;;-1.40;99.90;;;;;;5023254;28;20097;-66
2022/12/16 02:14:24;;;;;;;25.98;15.75;;;-1.40;99.90;;;;;;4969333;28;20049;-67
2022/12/16 02:16:58;;;;;;;23.48;15.60;;;-1.40;99.90;;;;;;4953269;28;20082;-67
2022/12/16 02:19:42;;;;;;;28.63;15.27;;;-1.50;99.90;;;;;;4953075;28;20058;-67
2022/12/16 02:22:32;;;;;;;26.05;15.32;;;-1.50;99.90;;;;;;4952656;28;20085;-67
2022/12/16 02:25:22;;;;;;;18.80;11.77;;;-1.40;99.90;;;;;;4952776;28;20496;-67
2022/12/16 02:28:02;;;;;;;25.60;14.00;;;-1.50;99.90;;;;;;4969003;28;20194;-67
2022/12/16 02:30:44;;;;;;;;;;;-1.60;99.90;;;;;;4953364;28;20089;-67
2022/12/16 02:33:21;;;;;;;21.00;13.82;;;-1.60;99.90;;;;;;4952809;28;19918;-67
2022/12/16 02:36:17;;;;;;;24.23;14.05;;;-1.60;99.90;;;;;;4952670;28;20039;-67
2022/12/16 02:39:20;;;;;;;22.70;13.77;;;-1.60;99.90;;;;;;4952592;28;20089;-67
2022/12/16 02:42:06;;;;;;;22.50;12.95;;;-1.50;99.90;;;;;;4895627;29;20050;-67
2022/12/16 02:44:39;;;;;;;22.02;13.35;;;-1.50;99.90;;;;;;4917820;29;20100;-67
2022/12/16 02:47:05;;;;;;;22.92;14.52;;;-1.50;99.90;;;;;;4946808;29;20051;-67
2022/12/16 02:49:30;;;;;;;24.83;13.90;;;-1.50;99.90;;;;;;4946594;29;20051;-67
2022/12/16 02:52:02;;;;;;;22.48;12.82;;;-1.50;99.90;;;;;;4945612;28;20050;-67
2022/12/16 02:54:28;;;;;;;18.65;12.70;;;-1.40;99.90;;;;;;4946122;29;20344;-67
2022/12/16 02:57:18;;;;;;;23.77;14.05;;;-1.40;99.90;;;;;;4930234;29;20040;-67
2022/12/16 03:00:06;;;;;;;21.03;10.83;;;-1.30;99.90;;;;;;4945982;29;20055;-67
2022/12/16 03:02:48;;;;;;;19.90;11.73;;;-1.30;99.90;;;;;;4946147;29;20295;-67
2022/12/16 03:05:37;;;;;;;21.08;11.32;;;-1.30;99.90;;;;;;4930280;29;20063;-67
2022/12/16 03:08:11;;;;;;;22.20;12.27;;;-1.30;99.90;;;;;;4930597;29;20825;-67
2022/12/16 03:10:43;;;;;;;26.08;11.93;;;-1.20;99.90;;;;;;4930059;29;20132;-67
2022/12/16 03:13:12;;;;;;;18.05;11.10;;;-1.20;99.90;;;;;;5002604;28;20054;-67
2022/12/16 03:15:39;;;;;;;19.08;11.15;;;-1.20;99.90;;;;;;4989238;28;20042;-67
2022/12/16 03:18:08;;;;;;;17.20;10.45;;;-1.20;99.90;;;;;;4990272;28;20057;-66
2022/12/16 03:20:51;;;;;;;18.13;10.40;;;-1.30;99.90;;;;;;4990095;28;20113;-67
2022/12/16 03:23:22;;;;;;;18.33;9.77;;;-1.30;99.90;;;;;;4990442;28;20096;-67
2022/12/16 03:25:53;;;;;;;15.93;9.65;;;-1.30;99.90;;;;;;4989288;28;20042;-67
2022/12/16 03:28:34;;;;;;;;;;;-1.30;99.90;;;;;;4990964;28;20042;-67
2022/12/16 03:31:31;;;;;;;20.42;10.02;;;-1.30;99.90;;;;;;4989086;28;19924;-67
2022/12/16 03:34:09;;;;;;;17.92;10.50;;;-1.20;99.90;;;;;;5000433;28;20438;-67
2022/12/16 03:36:38;;;;;;;20.17;10.65;;;-1.30;99.90;;;;;;5021303;28;20058;-67
2022/12/16 03:39:07;;;;;;;21.98;10.40;;;-1.20;99.90;;;;;;4988763;28;20584;-67
2022/12/16 03:41:34;;;;;;;21.30;11.45;;;-1.20;99.90;;;;;;5021940;28;20057;-67
2022/12/16 03:44:00;;;;;;;21.17;10.65;;;-1.10;99.90;;;;;;5021776;28;20074;-67
2022/12/16 03:46:26;;;;;;;18.45;10.70;;;-1.10;99.90;;;;;;4988927;28;20053;-67
2022/12/16 03:48:53;;;;;;;19.27;10.27;;;-1.10;99.90;;;;;;5021455;28;20046;-67
2022/12/16 03:51:19;;;;;;;21.02;10.57;;;-1.10;99.90;;;;;;4988792;28;20050;-67
2022/12/16 03:53:45;;;;;;;21.40;10.65;;;-1.00;99.90;;;;;;4988882;28;20506;-67
2022/12/16 03:56:12;;;;;;;17.85;9.98;;;-1.10;99.90;;;;;;5005093;28;20052;-67
2022/12/16 03:58:39;;;;;;;20.08;11.30;;;-1.10;99.90;;;;;;4988693;28;20101;-67
2022/12/16 04:01:08;;;;;;;19.13;9.40;;;-1.10;99.90;;;;;;4988728;28;20510;-67
2022/12/16 04:03:34;;;;;;;17.63;9.20;;;-1.10;99.90;;;;;;4988685;28;20038;-67
2022/12/16 04:06:00;;;;;;;17.60;9.23;;;-1.10;99.90;;;;;;4992273;28;20486;-67
2022/12/16 04:08:26;;;;;;;23.00;10.02;;;-1.10;99.90;;;;;;4993460;28;20042;-67
2022/12/16 04:25:21;;;;;;;19.42;9.35;;;-1.10;99.90;;;;;;4993451;28;20319;-67
2022/12/16 04:27:47;;;;;;;16.15;8.40;;;-1.10;99.90;;;;;;4993332;28;20038;-67
2022/12/16 04:30:18;;;;;;;18.02;9.43;;;-1.00;99.90;;;;;;4992297;28;20045;-67
